logo
Rechercher aéroport 
image banner adimage banner adimage banner ad
image banner ad

SDW7 - Fazenda Joia

Situé à Santa Rita Do Tocantins, Brazil

ICAO - SDW7, IATA -

Données fournies par Airmate  

Information générale

Coordonnées: S10°50'24" W49°28'6"
Élévation : 633 feet MSL.
Variation magnétique : -21.35° East
Voir autres Aéroports à Tocatins

Données opérationnelles

Special qualification required
Heure actuelle UTC:
Heure actuelle locale:
Météo à : - ( 0 km )
METAR: KANR 232125Z AUTO 00000KT 10SM CLR 29/24 A3018 RMK A01
Voir NOTAMs / SUP AIP / TFR affectant cet aéroport [VIEW]
Fréquences de communication: [VIEW]

Pistes:

Coordonnées de l'aéroport

Adresse: Santa Rita Do Tocantins Brazil

Vue satellite de SDW7